sensor_id;sensor_type;location;lat;lon;timestamp;P1;durP1;ratioP1;P2;durP2;ratioP2
53421;SDS011;39319;52.944;5.928;2022-09-21T00:03:31;8.13;;;3.88;;
53421;SDS011;39319;52.944;5.928;2022-09-21T00:06:07;8.93;;;3.60;;
53421;SDS011;39319;52.944;5.928;2022-09-21T00:08:34;10.50;;;3.80;;
53421;SDS011;39319;52.944;5.928;2022-09-21T00:11:01;9.40;;;3.90;;
53421;SDS011;39319;52.944;5.928;2022-09-21T00:13:28;8.70;;;3.78;;
53421;SDS011;39319;52.944;5.928;2022-09-21T00:15:55;9.75;;;3.88;;
53421;SDS011;39319;52.944;5.928;2022-09-21T00:18:22;8.38;;;4.00;;
53421;SDS011;39319;52.944;5.928;2022-09-21T00:20:48;7.95;;;3.95;;
53421;SDS011;39319;52.944;5.928;2022-09-21T00:23:16;7.97;;;4.03;;
53421;SDS011;39319;52.944;5.928;2022-09-21T00:25:42;8.00;;;3.90;;
53421;SDS011;39319;52.944;5.928;2022-09-21T00:28:09;9.55;;;3.97;;
53421;SDS011;39319;52.944;5.928;2022-09-21T00:30:36;6.90;;;3.58;;
53421;SDS011;39319;52.944;5.928;2022-09-21T00:33:04;7.75;;;3.97;;
53421;SDS011;39319;52.944;5.928;2022-09-21T00:35:31;8.43;;;4.05;;
53421;SDS011;39319;52.944;5.928;2022-09-21T00:38:01;8.95;;;4.20;;
53421;SDS011;39319;52.944;5.928;2022-09-21T00:40:27;8.80;;;4.35;;
53421;SDS011;39319;52.944;5.928;2022-09-21T00:43:09;8.82;;;3.83;;
53421;SDS011;39319;52.944;5.928;2022-09-21T00:46:03;9.52;;;3.97;;
53421;SDS011;39319;52.944;5.928;2022-09-21T00:48:31;8.70;;;4.00;;
53421;SDS011;39319;52.944;5.928;2022-09-21T00:50:58;8.50;;;4.05;;
53421;SDS011;39319;52.944;5.928;2022-09-21T00:53:28;9.45;;;3.90;;
53421;SDS011;39319;52.944;5.928;2022-09-21T00:55:56;7.65;;;3.90;;
53421;SDS011;39319;52.944;5.928;2022-09-21T00:58:25;8.30;;;4.10;;
53421;SDS011;39319;52.944;5.928;2022-09-21T01:00:58;9.13;;;4.13;;
53421;SDS011;39319;52.944;5.928;2022-09-21T01:03:25;9.38;;;4.07;;
53421;SDS011;39319;52.944;5.928;2022-09-21T01:05:53;7.05;;;3.97;;
53421;SDS011;39319;52.944;5.928;2022-09-21T01:08:19;8.52;;;4.53;;
53421;SDS011;39319;52.944;5.928;2022-09-21T01:13:28;7.72;;;4.35;;
53421;SDS011;39319;52.944;5.928;2022-09-21T01:21:18;8.48;;;4.30;;
53421;SDS011;39319;52.944;5.928;2022-09-21T01:29:25;8.98;;;4.40;;
53421;SDS011;39319;52.944;5.928;2022-09-21T01:34:32;7.50;;;4.20;;
53421;SDS011;39319;52.944;5.928;2022-09-21T01:37:20;9.25;;;4.35;;
53421;SDS011;39319;52.944;5.928;2022-09-21T01:40:09;7.65;;;4.10;;
53421;SDS011;39319;52.944;5.928;2022-09-21T01:42:42;10.15;;;4.32;;
53421;SDS011;39319;52.944;5.928;2022-09-21T01:45:10;8.40;;;4.38;;
53421;SDS011;39319;52.944;5.928;2022-09-21T01:47:41;9.50;;;4.35;;
53421;SDS011;39319;52.944;5.928;2022-09-21T01:50:08;9.07;;;3.95;;
53421;SDS011;39319;52.944;5.928;2022-09-21T01:52:40;8.25;;;4.28;;
53421;SDS011;39319;52.944;5.928;2022-09-21T01:55:12;8.00;;;4.83;;
53421;SDS011;39319;52.944;5.928;2022-09-21T02:00:29;8.93;;;4.25;;
53421;SDS011;39319;52.944;5.928;2022-09-21T02:03:04;8.70;;;4.03;;
53421;SDS011;39319;52.944;5.928;2022-09-21T02:06:05;7.72;;;4.25;;
53421;SDS011;39319;52.944;5.928;2022-09-21T02:08:32;8.60;;;4.43;;
53421;SDS011;39319;52.944;5.928;2022-09-21T02:11:01;10.05;;;4.40;;
53421;SDS011;39319;52.944;5.928;2022-09-21T02:13:32;7.63;;;4.38;;
53421;SDS011;39319;52.944;5.928;2022-09-21T02:21:31;7.85;;;4.38;;
53421;SDS011;39319;52.944;5.928;2022-09-21T02:38:19;7.30;;;4.20;;
53421;SDS011;39319;52.944;5.928;2022-09-21T02:40:55;9.88;;;4.53;;
53421;SDS011;39319;52.944;5.928;2022-09-21T02:46:17;8.80;;;4.40;;
53421;SDS011;39319;52.944;5.928;2022-09-21T02:48:51;8.50;;;4.47;;
53421;SDS011;39319;52.944;5.928;2022-09-21T02:51:28;8.65;;;4.35;;
53421;SDS011;39319;52.944;5.928;2022-09-21T02:54:02;8.50;;;4.38;;
53421;SDS011;39319;52.944;5.928;2022-09-21T02:56:30;8.50;;;4.30;;
53421;SDS011;39319;52.944;5.928;2022-09-21T02:58:58;7.27;;;4.07;;
53421;SDS011;39319;52.944;5.928;2022-09-21T03:01:26;8.90;;;4.40;;
53421;SDS011;39319;52.944;5.928;2022-09-21T03:03:53;7.95;;;4.30;;
53421;SDS011;39319;52.944;5.928;2022-09-21T03:06:19;8.77;;;4.45;;
53421;SDS011;39319;52.944;5.928;2022-09-21T03:08:51;8.48;;;4.78;;
53421;SDS011;39319;52.944;5.928;2022-09-21T03:11:17;8.18;;;4.78;;
53421;SDS011;39319;52.944;5.928;2022-09-21T03:13:44;8.25;;;4.30;;
53421;SDS011;39319;52.944;5.928;2022-09-21T03:16:11;8.77;;;4.55;;
53421;SDS011;39319;52.944;5.928;2022-09-21T03:18:37;7.05;;;3.95;;
53421;SDS011;39319;52.944;5.928;2022-09-21T03:21:04;6.35;;;3.90;;
53421;SDS011;39319;52.944;5.928;2022-09-21T03:23:31;7.05;;;3.95;;
53421;SDS011;39319;52.944;5.928;2022-09-21T03:25:57;10.10;;;4.25;;
53421;SDS011;39319;52.944;5.928;2022-09-21T03:28:23;7.10;;;3.80;;
53421;SDS011;39319;52.944;5.928;2022-09-21T03:30:50;6.63;;;3.78;;
53421;SDS011;39319;52.944;5.928;2022-09-21T03:33:17;8.32;;;4.30;;
53421;SDS011;39319;52.944;5.928;2022-09-21T03:35:44;8.02;;;4.10;;
53421;SDS011;39319;52.944;5.928;2022-09-21T03:38:11;8.20;;;4.20;;
53421;SDS011;39319;52.944;5.928;2022-09-21T03:40:37;7.47;;;3.70;;
53421;SDS011;39319;52.944;5.928;2022-09-21T03:43:03;7.70;;;3.95;;
53421;SDS011;39319;52.944;5.928;2022-09-21T03:45:29;7.57;;;3.83;;
53421;SDS011;39319;52.944;5.928;2022-09-21T03:47:56;6.13;;;3.90;;
53421;SDS011;39319;52.944;5.928;2022-09-21T03:50:24;8.30;;;4.05;;
53421;SDS011;39319;52.944;5.928;2022-09-21T03:53:04;8.60;;;4.10;;
53421;SDS011;39319;52.944;5.928;2022-09-21T03:55:30;7.65;;;3.83;;
53421;SDS011;39319;52.944;5.928;2022-09-21T03:57:57;7.07;;;3.97;;
53421;SDS011;39319;52.944;5.928;2022-09-21T04:00:23;9.02;;;3.78;;
53421;SDS011;39319;52.944;5.928;2022-09-21T04:02:49;7.93;;;3.50;;
53421;SDS011;39319;52.944;5.928;2022-09-21T04:05:14;7.40;;;3.70;;
53421;SDS011;39319;52.944;5.928;2022-09-21T04:07:42;8.02;;;3.90;;
53421;SDS011;39319;52.944;5.928;2022-09-21T04:10:10;7.55;;;3.75;;
53421;SDS011;39319;52.944;5.928;2022-09-21T04:12:38;7.00;;;3.63;;
53421;SDS011;39319;52.944;5.928;2022-09-21T04:15:17;7.20;;;3.55;;
53421;SDS011;39319;52.944;5.928;2022-09-21T04:17:44;6.97;;;3.33;;
53421;SDS011;39319;52.944;5.928;2022-09-21T04:20:10;6.82;;;3.75;;
53421;SDS011;39319;52.944;5.928;2022-09-21T04:22:36;8.07;;;3.78;;
53421;SDS011;39319;52.944;5.928;2022-09-21T04:25:03;8.38;;;3.95;;
53421;SDS011;39319;52.944;5.928;2022-09-21T04:27:30;7.05;;;3.60;;
53421;SDS011;39319;52.944;5.928;2022-09-21T04:29:57;7.57;;;4.75;;
53421;SDS011;39319;52.944;5.928;2022-09-21T04:32:23;9.23;;;5.50;;
53421;SDS011;39319;52.944;5.928;2022-09-21T04:34:49;9.77;;;5.87;;
53421;SDS011;39319;52.944;5.928;2022-09-21T04:37:15;11.67;;;8.47;;
53421;SDS011;39319;52.944;5.928;2022-09-21T04:39:41;8.40;;;4.72;;
53421;SDS011;39319;52.944;5.928;2022-09-21T04:42:07;9.00;;;5.03;;
53421;SDS011;39319;52.944;5.928;2022-09-21T04:44:37;8.50;;;4.05;;
53421;SDS011;39319;52.944;5.928;2022-09-21T04:47:02;7.32;;;4.03;;
53421;SDS011;39319;52.944;5.928;2022-09-21T04:49:29;6.85;;;3.85;;
53421;SDS011;39319;52.944;5.928;2022-09-21T04:51:55;8.37;;;4.27;;
53421;SDS011;39319;52.944;5.928;2022-09-21T04:54:20;7.70;;;4.03;;
53421;SDS011;39319;52.944;5.928;2022-09-21T04:56:47;8.20;;;3.70;;
53421;SDS011;39319;52.944;5.928;2022-09-21T04:59:12;6.28;;;3.33;;
53421;SDS011;39319;52.944;5.928;2022-09-21T05:01:41;9.65;;;4.35;;
53421;SDS011;39319;52.944;5.928;2022-09-21T05:04:07;7.00;;;3.93;;
53421;SDS011;39319;52.944;5.928;2022-09-21T05:06:33;8.65;;;3.67;;
53421;SDS011;39319;52.944;5.928;2022-09-21T05:09:00;7.50;;;3.80;;
53421;SDS011;39319;52.944;5.928;2022-09-21T05:11:45;10.33;;;3.63;;
53421;SDS011;39319;52.944;5.928;2022-09-21T05:14:11;8.32;;;3.92;;
53421;SDS011;39319;52.944;5.928;2022-09-21T05:16:37;6.63;;;3.20;;
53421;SDS011;39319;52.944;5.928;2022-09-21T05:19:03;6.55;;;3.40;;
53421;SDS011;39319;52.944;5.928;2022-09-21T05:21:29;8.15;;;3.53;;
53421;SDS011;39319;52.944;5.928;2022-09-21T05:23:56;7.25;;;3.50;;
53421;SDS011;39319;52.944;5.928;2022-09-21T05:26:22;6.95;;;3.58;;
53421;SDS011;39319;52.944;5.928;2022-09-21T05:28:48;7.47;;;3.28;;
53421;SDS011;39319;52.944;5.928;2022-09-21T05:39:11;6.07;;;3.00;;
53421;SDS011;39319;52.944;5.928;2022-09-21T05:41:38;7.50;;;3.05;;
53421;SDS011;39319;52.944;5.928;2022-09-21T05:44:08;6.50;;;2.75;;
53421;SDS011;39319;52.944;5.928;2022-09-21T05:46:41;5.97;;;2.83;;
53421;SDS011;39319;52.944;5.928;2022-09-21T05:52:27;7.53;;;3.13;;
53421;SDS011;39319;52.944;5.928;2022-09-21T05:55:08;6.00;;;2.70;;
53421;SDS011;39319;52.944;5.928;2022-09-21T06:00:16;6.60;;;2.80;;
53421;SDS011;39319;52.944;5.928;2022-09-21T06:05:29;6.60;;;2.50;;
53421;SDS011;39319;52.944;5.928;2022-09-21T06:07:54;5.15;;;2.47;;
53421;SDS011;39319;52.944;5.928;2022-09-21T06:10:21;7.10;;;2.40;;
53421;SDS011;39319;52.944;5.928;2022-09-21T06:12:48;5.43;;;2.67;;
53421;SDS011;39319;52.944;5.928;2022-09-21T06:15:14;5.38;;;2.45;;
53421;SDS011;39319;52.944;5.928;2022-09-21T06:17:40;7.37;;;2.70;;
53421;SDS011;39319;52.944;5.928;2022-09-21T06:20:07;5.45;;;2.45;;
53421;SDS011;39319;52.944;5.928;2022-09-21T06:22:33;6.32;;;2.38;;
53421;SDS011;39319;52.944;5.928;2022-09-21T06:24:59;6.15;;;2.10;;
53421;SDS011;39319;52.944;5.928;2022-09-21T06:27:26;5.35;;;2.00;;
53421;SDS011;39319;52.944;5.928;2022-09-21T06:29:53;5.28;;;1.90;;
53421;SDS011;39319;52.944;5.928;2022-09-21T06:32:19;4.88;;;1.70;;
53421;SDS011;39319;52.944;5.928;2022-09-21T06:34:44;4.03;;;1.77;;
53421;SDS011;39319;52.944;5.928;2022-09-21T06:37:10;4.05;;;1.52;;
53421;SDS011;39319;52.944;5.928;2022-09-21T06:39:36;4.75;;;1.73;;
53421;SDS011;39319;52.944;5.928;2022-09-21T06:42:01;4.85;;;1.90;;
53421;SDS011;39319;52.944;5.928;2022-09-21T06:44:27;5.00;;;2.03;;
53421;SDS011;39319;52.944;5.928;2022-09-21T06:46:54;5.55;;;1.65;;
53421;SDS011;39319;52.944;5.928;2022-09-21T06:49:20;4.50;;;1.80;;
53421;SDS011;39319;52.944;5.928;2022-09-21T06:51:47;3.83;;;1.40;;
53421;SDS011;39319;52.944;5.928;2022-09-21T06:54:15;5.15;;;1.70;;
53421;SDS011;39319;52.944;5.928;2022-09-21T06:56:42;4.63;;;1.60;;
53421;SDS011;39319;52.944;5.928;2022-09-21T06:59:08;4.72;;;1.70;;
53421;SDS011;39319;52.944;5.928;2022-09-21T07:01:34;5.00;;;1.47;;
53421;SDS011;39319;52.944;5.928;2022-09-21T07:04:00;4.80;;;1.73;;
53421;SDS011;39319;52.944;5.928;2022-09-21T07:06:33;3.60;;;1.40;;
53421;SDS011;39319;52.944;5.928;2022-09-21T07:09:02;4.50;;;1.40;;
53421;SDS011;39319;52.944;5.928;2022-09-21T07:11:28;3.50;;;1.30;;
53421;SDS011;39319;52.944;5.928;2022-09-21T07:13:54;3.95;;;1.35;;
53421;SDS011;39319;52.944;5.928;2022-09-21T07:16:20;8.37;;;1.97;;
53421;SDS011;39319;52.944;5.928;2022-09-21T07:18:46;7.32;;;1.48;;
53421;SDS011;39319;52.944;5.928;2022-09-21T07:21:13;7.53;;;1.70;;
53421;SDS011;39319;52.944;5.928;2022-09-21T07:23:38;6.22;;;1.77;;
53421;SDS011;39319;52.944;5.928;2022-09-21T07:26:05;6.00;;;2.00;;
53421;SDS011;39319;52.944;5.928;2022-09-21T07:28:33;6.60;;;2.00;;
53421;SDS011;39319;52.944;5.928;2022-09-21T07:31:09;5.10;;;1.80;;
53421;SDS011;39319;52.944;5.928;2022-09-21T07:33:40;5.63;;;1.90;;
53421;SDS011;39319;52.944;5.928;2022-09-21T07:36:08;4.60;;;2.10;;
53421;SDS011;39319;52.944;5.928;2022-09-21T07:38:35;4.85;;;2.30;;
53421;SDS011;39319;52.944;5.928;2022-09-21T07:41:04;6.18;;;2.35;;
53421;SDS011;39319;52.944;5.928;2022-09-21T07:43:31;6.18;;;3.00;;
53421;SDS011;39319;52.944;5.928;2022-09-21T07:45:58;7.05;;;2.80;;
53421;SDS011;39319;52.944;5.928;2022-09-21T07:48:26;8.85;;;3.15;;
53421;SDS011;39319;52.944;5.928;2022-09-21T07:50:53;8.93;;;3.20;;
53421;SDS011;39319;52.944;5.928;2022-09-21T07:53:20;7.20;;;2.90;;
53421;SDS011;39319;52.944;5.928;2022-09-21T07:55:45;8.13;;;3.07;;
53421;SDS011;39319;52.944;5.928;2022-09-21T07:58:11;8.75;;;2.83;;
53421;SDS011;39319;52.944;5.928;2022-09-21T08:00:55;8.20;;;3.15;;
53421;SDS011;39319;52.944;5.928;2022-09-21T08:03:21;8.20;;;2.83;;
53421;SDS011;39319;52.944;5.928;2022-09-21T08:05:47;10.05;;;3.30;;
53421;SDS011;39319;52.944;5.928;2022-09-21T08:08:13;8.70;;;3.60;;
53421;SDS011;39319;52.944;5.928;2022-09-21T08:10:40;7.75;;;3.55;;
53421;SDS011;39319;52.944;5.928;2022-09-21T08:13:06;10.48;;;3.72;;
53421;SDS011;39319;52.944;5.928;2022-09-21T08:15:32;9.43;;;3.77;;
53421;SDS011;39319;52.944;5.928;2022-09-21T08:17:58;12.43;;;3.90;;
53421;SDS011;39319;52.944;5.928;2022-09-21T08:20:26;9.63;;;3.00;;
53421;SDS011;39319;52.944;5.928;2022-09-21T08:22:54;11.43;;;3.43;;
53421;SDS011;39319;52.944;5.928;2022-09-21T08:25:20;9.32;;;2.88;;
53421;SDS011;39319;52.944;5.928;2022-09-21T08:27:46;10.70;;;3.10;;
53421;SDS011;39319;52.944;5.928;2022-09-21T08:30:13;9.02;;;3.17;;
53421;SDS011;39319;52.944;5.928;2022-09-21T08:32:39;10.60;;;3.10;;
53421;SDS011;39319;52.944;5.928;2022-09-21T08:35:06;8.48;;;2.70;;
53421;SDS011;39319;52.944;5.928;2022-09-21T08:37:33;8.13;;;2.60;;
53421;SDS011;39319;52.944;5.928;2022-09-21T08:40:01;8.77;;;2.30;;
53421;SDS011;39319;52.944;5.928;2022-09-21T08:42:34;10.07;;;2.80;;
53421;SDS011;39319;52.944;5.928;2022-09-21T08:45:11;11.50;;;2.67;;
53421;SDS011;39319;52.944;5.928;2022-09-21T08:47:44;8.45;;;2.42;;
53421;SDS011;39319;52.944;5.928;2022-09-21T08:50:30;8.73;;;2.38;;
53421;SDS011;39319;52.944;5.928;2022-09-21T08:53:24;8.90;;;1.50;;
53421;SDS011;39319;52.944;5.928;2022-09-21T08:55:55;10.20;;;1.63;;
53421;SDS011;39319;52.944;5.928;2022-09-21T09:01:05;9.65;;;1.75;;
53421;SDS011;39319;52.944;5.928;2022-09-21T09:06:20;9.70;;;1.67;;
53421;SDS011;39319;52.944;5.928;2022-09-21T09:20:19;9.48;;;1.38;;
53421;SDS011;39319;52.944;5.928;2022-09-21T09:22:51;9.30;;;1.50;;
53421;SDS011;39319;52.944;5.928;2022-09-21T09:25:21;9.93;;;1.50;;
53421;SDS011;39319;52.944;5.928;2022-09-21T09:27:56;9.63;;;1.70;;
53421;SDS011;39319;52.944;5.928;2022-09-21T09:30:27;8.82;;;1.30;;
53421;SDS011;39319;52.944;5.928;2022-09-21T09:33:01;10.77;;;1.35;;
53421;SDS011;39319;52.944;5.928;2022-09-21T09:35:45;8.93;;;1.73;;
53421;SDS011;39319;52.944;5.928;2022-09-21T09:38:39;10.35;;;1.50;;
53421;SDS011;39319;52.944;5.928;2022-09-21T09:46:48;9.15;;;1.55;;
53421;SDS011;39319;52.944;5.928;2022-09-21T09:50:11;8.48;;;1.25;;
53421;SDS011;39319;52.944;5.928;2022-09-21T09:52:24;9.02;;;1.58;;
53421;SDS011;39319;52.944;5.928;2022-09-21T09:54:51;8.10;;;1.23;;
53421;SDS011;39319;52.944;5.928;2022-09-21T09:57:22;6.63;;;1.40;;
53421;SDS011;39319;52.944;5.928;2022-09-21T09:59:58;10.20;;;1.30;;
53421;SDS011;39319;52.944;5.928;2022-09-21T10:02:28;12.77;;;2.15;;
53421;SDS011;39319;52.944;5.928;2022-09-21T10:05:02;8.40;;;1.43;;
53421;SDS011;39319;52.944;5.928;2022-09-21T10:07:42;7.32;;;1.13;;
53421;SDS011;39319;52.944;5.928;2022-09-21T10:12:54;8.55;;;1.25;;
53421;SDS011;39319;52.944;5.928;2022-09-21T10:15:26;9.35;;;1.35;;
53421;SDS011;39319;52.944;5.928;2022-09-21T10:23:45;8.10;;;1.40;;
53421;SDS011;39319;52.944;5.928;2022-09-21T10:26:16;7.53;;;1.30;;
53421;SDS011;39319;52.944;5.928;2022-09-21T10:28:54;6.55;;;1.02;;
53421;SDS011;39319;52.944;5.928;2022-09-21T10:31:27;7.65;;;1.30;;
53421;SDS011;39319;52.944;5.928;2022-09-21T10:36:23;10.03;;;1.10;;
53421;SDS011;39319;52.944;5.928;2022-09-21T10:38:54;7.85;;;1.20;;
53421;SDS011;39319;52.944;5.928;2022-09-21T10:41:20;6.05;;;0.98;;
53421;SDS011;39319;52.944;5.928;2022-09-21T10:43:46;8.18;;;1.25;;
53421;SDS011;39319;52.944;5.928;2022-09-21T10:46:14;7.70;;;1.27;;
53421;SDS011;39319;52.944;5.928;2022-09-21T10:48:40;8.63;;;1.25;;
53421;SDS011;39319;52.944;5.928;2022-09-21T10:51:18;8.40;;;1.00;;
53421;SDS011;39319;52.944;5.928;2022-09-21T10:53:49;7.68;;;1.13;;
53421;SDS011;39319;52.944;5.928;2022-09-21T10:56:16;8.32;;;1.38;;
53421;SDS011;39319;52.944;5.928;2022-09-21T11:01:46;6.37;;;0.87;;
53421;SDS011;39319;52.944;5.928;2022-09-21T11:04:18;6.47;;;1.05;;
53421;SDS011;39319;52.944;5.928;2022-09-21T11:09:47;6.90;;;1.00;;
53421;SDS011;39319;52.944;5.928;2022-09-21T11:12:30;7.22;;;1.20;;
53421;SDS011;39319;52.944;5.928;2022-09-21T11:17:53;6.32;;;1.20;;
53421;SDS011;39319;52.944;5.928;2022-09-21T11:20:52;8.73;;;1.30;;
53421;SDS011;39319;52.944;5.928;2022-09-21T11:34:08;6.57;;;0.80;;
53421;SDS011;39319;52.944;5.928;2022-09-21T11:37:06;6.45;;;1.00;;
53421;SDS011;39319;52.944;5.928;2022-09-21T11:45:25;7.15;;;1.13;;
53421;SDS011;39319;52.944;5.928;2022-09-21T11:56:30;6.80;;;1.00;;
53421;SDS011;39319;52.944;5.928;2022-09-21T12:10:42;8.23;;;1.20;;
53421;SDS011;39319;52.944;5.928;2022-09-21T12:18:33;6.33;;;0.90;;
53421;SDS011;39319;52.944;5.928;2022-09-21T12:21:28;4.60;;;0.82;;
53421;SDS011;39319;52.944;5.928;2022-09-21T12:24:01;9.18;;;1.10;;
53421;SDS011;39319;52.944;5.928;2022-09-21T12:26:43;7.63;;;0.97;;
53421;SDS011;39319;52.944;5.928;2022-09-21T12:29:16;6.88;;;1.00;;
53421;SDS011;39319;52.944;5.928;2022-09-21T12:34:33;5.93;;;1.00;;
53421;SDS011;39319;52.944;5.928;2022-09-21T12:37:15;6.70;;;0.93;;
53421;SDS011;39319;52.944;5.928;2022-09-21T12:40:05;8.27;;;1.13;;
53421;SDS011;39319;52.944;5.928;2022-09-21T12:45:14;5.55;;;0.75;;
53421;SDS011;39319;52.944;5.928;2022-09-21T12:53:09;8.07;;;1.20;;
53421;SDS011;39319;52.944;5.928;2022-09-21T13:04:33;5.20;;;0.87;;
53421;SDS011;39319;52.944;5.928;2022-09-21T13:10:05;6.60;;;1.10;;
53421;SDS011;39319;52.944;5.928;2022-09-21T13:12:44;5.85;;;0.90;;
53421;SDS011;39319;52.944;5.928;2022-09-21T13:15:21;9.07;;;1.13;;
53421;SDS011;39319;52.944;5.928;2022-09-21T13:20:36;6.00;;;1.08;;
53421;SDS011;39319;52.944;5.928;2022-09-21T13:23:04;6.15;;;1.00;;
53421;SDS011;39319;52.944;5.928;2022-09-21T13:25:38;5.72;;;1.20;;
53421;SDS011;39319;52.944;5.928;2022-09-21T13:28:38;7.47;;;1.17;;
53421;SDS011;39319;52.944;5.928;2022-09-21T13:34:03;5.22;;;0.90;;
53421;SDS011;39319;52.944;5.928;2022-09-21T13:39:44;6.47;;;0.93;;
53421;SDS011;39319;52.944;5.928;2022-09-21T13:45:01;7.40;;;1.20;;
53421;SDS011;39319;52.944;5.928;2022-09-21T13:47:40;6.28;;;0.90;;
53421;SDS011;39319;52.944;5.928;2022-09-21T13:50:27;9.02;;;1.10;;
53421;SDS011;39319;52.944;5.928;2022-09-21T13:53:22;5.70;;;1.05;;
53421;SDS011;39319;52.944;5.928;2022-09-21T13:55:51;6.90;;;1.20;;
53421;SDS011;39319;52.944;5.928;2022-09-21T13:58:20;6.20;;;0.85;;
53421;SDS011;39319;52.944;5.928;2022-09-21T14:00:53;9.32;;;0.90;;
53421;SDS011;39319;52.944;5.928;2022-09-21T14:03:36;6.82;;;1.20;;
53421;SDS011;39319;52.944;5.928;2022-09-21T14:06:05;7.13;;;0.95;;
53421;SDS011;39319;52.944;5.928;2022-09-21T14:08:35;5.95;;;0.90;;
53421;SDS011;39319;52.944;5.928;2022-09-21T14:18:58;5.80;;;1.10;;
53421;SDS011;39319;52.944;5.928;2022-09-21T14:21:26;7.25;;;1.00;;
53421;SDS011;39319;52.944;5.928;2022-09-21T14:29:19;6.03;;;0.80;;
53421;SDS011;39319;52.944;5.928;2022-09-21T14:31:59;5.70;;;1.00;;
53421;SDS011;39319;52.944;5.928;2022-09-21T14:34:31;6.32;;;0.90;;
53421;SDS011;39319;52.944;5.928;2022-09-21T14:37:02;7.85;;;1.50;;
53421;SDS011;39319;52.944;5.928;2022-09-21T14:39:36;7.50;;;1.10;;
53421;SDS011;39319;52.944;5.928;2022-09-21T14:42:07;5.28;;;1.10;;
53421;SDS011;39319;52.944;5.928;2022-09-21T14:44:39;6.32;;;1.00;;
53421;SDS011;39319;52.944;5.928;2022-09-21T15:00:55;6.53;;;0.90;;
53421;SDS011;39319;52.944;5.928;2022-09-21T15:03:48;6.53;;;0.85;;
53421;SDS011;39319;52.944;5.928;2022-09-21T15:12:46;7.93;;;1.10;;
53421;SDS011;39319;52.944;5.928;2022-09-21T15:18:13;6.22;;;0.95;;
53421;SDS011;39319;52.944;5.928;2022-09-21T15:20:53;7.18;;;1.13;;
53421;SDS011;39319;52.944;5.928;2022-09-21T15:23:25;6.05;;;1.00;;
53421;SDS011;39319;52.944;5.928;2022-09-21T15:26:09;5.73;;;1.00;;
53421;SDS011;39319;52.944;5.928;2022-09-21T15:28:43;7.25;;;1.08;;
53421;SDS011;39319;52.944;5.928;2022-09-21T15:31:14;6.07;;;1.05;;
53421;SDS011;39319;52.944;5.928;2022-09-21T15:33:41;5.65;;;0.70;;
53421;SDS011;39319;52.944;5.928;2022-09-21T15:36:24;6.05;;;1.08;;
53421;SDS011;39319;52.944;5.928;2022-09-21T15:38:51;5.22;;;0.90;;
53421;SDS011;39319;52.944;5.928;2022-09-21T15:44:21;6.53;;;1.35;;
53421;SDS011;39319;52.944;5.928;2022-09-21T15:46:56;5.72;;;0.80;;
53421;SDS011;39319;52.944;5.928;2022-09-21T15:49:25;7.50;;;1.30;;
53421;SDS011;39319;52.944;5.928;2022-09-21T15:52:05;8.00;;;1.10;;
53421;SDS011;39319;52.944;5.928;2022-09-21T15:55:04;7.23;;;0.90;;
53421;SDS011;39319;52.944;5.928;2022-09-21T15:57:40;7.78;;;1.17;;
53421;SDS011;39319;52.944;5.928;2022-09-21T16:03:28;7.30;;;1.02;;
53421;SDS011;39319;52.944;5.928;2022-09-21T16:05:32;6.00;;;1.00;;
53421;SDS011;39319;52.944;5.928;2022-09-21T16:08:16;6.65;;;1.40;;
53421;SDS011;39319;52.944;5.928;2022-09-21T16:10:47;6.10;;;0.90;;
53421;SDS011;39319;52.944;5.928;2022-09-21T16:16:09;7.80;;;1.25;;
53421;SDS011;39319;52.944;5.928;2022-09-21T16:18:39;6.57;;;1.03;;
53421;SDS011;39319;52.944;5.928;2022-09-21T16:21:08;7.90;;;1.42;;
53421;SDS011;39319;52.944;5.928;2022-09-21T16:23:57;7.00;;;1.08;;
53421;SDS011;39319;52.944;5.928;2022-09-21T16:26:41;6.18;;;1.00;;
53421;SDS011;39319;52.944;5.928;2022-09-21T16:31:45;4.93;;;0.88;;
53421;SDS011;39319;52.944;5.928;2022-09-21T16:37:00;7.43;;;1.17;;
53421;SDS011;39319;52.944;5.928;2022-09-21T16:39:52;7.03;;;1.73;;
53421;SDS011;39319;52.944;5.928;2022-09-21T16:42:20;6.60;;;1.48;;
53421;SDS011;39319;52.944;5.928;2022-09-21T16:44:48;8.27;;;2.33;;
53421;SDS011;39319;52.944;5.928;2022-09-21T16:47:15;8.15;;;1.55;;
53421;SDS011;39319;52.944;5.928;2022-09-21T16:49:46;9.40;;;3.60;;
53421;SDS011;39319;52.944;5.928;2022-09-21T16:52:12;9.27;;;1.95;;
53421;SDS011;39319;52.944;5.928;2022-09-21T16:54:40;6.25;;;1.30;;
53421;SDS011;39319;52.944;5.928;2022-09-21T16:57:06;5.53;;;1.10;;
53421;SDS011;39319;52.944;5.928;2022-09-21T16:59:32;6.93;;;1.20;;
53421;SDS011;39319;52.944;5.928;2022-09-21T17:02:00;6.90;;;2.17;;
53421;SDS011;39319;52.944;5.928;2022-09-21T17:04:30;12.68;;;4.45;;
53421;SDS011;39319;52.944;5.928;2022-09-21T17:06:58;13.35;;;6.10;;
53421;SDS011;39319;52.944;5.928;2022-09-21T17:09:34;11.35;;;5.10;;
53421;SDS011;39319;52.944;5.928;2022-09-21T17:12:03;8.13;;;2.57;;
53421;SDS011;39319;52.944;5.928;2022-09-21T17:14:33;6.25;;;2.22;;
53421;SDS011;39319;52.944;5.928;2022-09-21T17:17:09;10.93;;;3.00;;
53421;SDS011;39319;52.944;5.928;2022-09-21T17:19:44;9.10;;;3.97;;
53421;SDS011;39319;52.944;5.928;2022-09-21T17:22:14;12.48;;;5.35;;
53421;SDS011;39319;52.944;5.928;2022-09-21T17:24:44;10.67;;;5.53;;
53421;SDS011;39319;52.944;5.928;2022-09-21T17:27:10;10.05;;;4.63;;
53421;SDS011;39319;52.944;5.928;2022-09-21T17:29:37;8.40;;;4.05;;
53421;SDS011;39319;52.944;5.928;2022-09-21T17:32:11;8.98;;;3.30;;
53421;SDS011;39319;52.944;5.928;2022-09-21T17:34:38;8.73;;;4.20;;
53421;SDS011;39319;52.944;5.928;2022-09-21T17:37:05;7.93;;;3.38;;
53421;SDS011;39319;52.944;5.928;2022-09-21T17:39:31;7.70;;;2.90;;
53421;SDS011;39319;52.944;5.928;2022-09-21T17:42:05;5.80;;;2.00;;
53421;SDS011;39319;52.944;5.928;2022-09-21T17:47:26;7.30;;;2.10;;
53421;SDS011;39319;52.944;5.928;2022-09-21T17:49:54;7.55;;;2.05;;
53421;SDS011;39319;52.944;5.928;2022-09-21T17:52:26;6.57;;;2.13;;
53421;SDS011;39319;52.944;5.928;2022-09-21T17:55:11;7.78;;;2.10;;
53421;SDS011;39319;52.944;5.928;2022-09-21T18:00:52;7.93;;;2.07;;
53421;SDS011;39319;52.944;5.928;2022-09-21T18:03:26;8.50;;;2.22;;
53421;SDS011;39319;52.944;5.928;2022-09-21T18:05:55;6.78;;;2.08;;
53421;SDS011;39319;52.944;5.928;2022-09-21T18:08:24;11.03;;;3.37;;
53421;SDS011;39319;52.944;5.928;2022-09-21T18:11:11;9.15;;;3.60;;
53421;SDS011;39319;52.944;5.928;2022-09-21T18:21:19;11.65;;;5.68;;
53421;SDS011;39319;52.944;5.928;2022-09-21T18:26:42;11.30;;;4.35;;
53421;SDS011;39319;52.944;5.928;2022-09-21T18:29:15;9.68;;;3.20;;
53421;SDS011;39319;52.944;5.928;2022-09-21T18:37:54;9.33;;;4.10;;
53421;SDS011;39319;52.944;5.928;2022-09-21T18:46:02;9.32;;;4.10;;
53421;SDS011;39319;52.944;5.928;2022-09-21T18:48:54;9.52;;;3.47;;
53421;SDS011;39319;52.944;5.928;2022-09-21T18:51:50;8.18;;;3.08;;
53421;SDS011;39319;52.944;5.928;2022-09-21T18:54:46;7.32;;;2.38;;
53421;SDS011;39319;52.944;5.928;2022-09-21T18:57:13;8.25;;;3.20;;
53421;SDS011;39319;52.944;5.928;2022-09-21T18:59:40;11.48;;;4.07;;
53421;SDS011;39319;52.944;5.928;2022-09-21T19:02:11;9.27;;;3.90;;
53421;SDS011;39319;52.944;5.928;2022-09-21T19:04:40;13.77;;;6.00;;
53421;SDS011;39319;52.944;5.928;2022-09-21T19:07:12;12.45;;;5.70;;
53421;SDS011;39319;52.944;5.928;2022-09-21T19:10:08;11.98;;;5.47;;
53421;SDS011;39319;52.944;5.928;2022-09-21T19:13:11;11.52;;;5.25;;
53421;SDS011;39319;52.944;5.928;2022-09-21T19:32:35;12.82;;;5.55;;
53421;SDS011;39319;52.944;5.928;2022-09-21T19:37:49;15.77;;;7.60;;
53421;SDS011;39319;52.944;5.928;2022-09-21T19:40:20;16.58;;;6.60;;
53421;SDS011;39319;52.944;5.928;2022-09-21T19:45:18;16.98;;;7.32;;
53421;SDS011;39319;52.944;5.928;2022-09-21T19:47:57;18.65;;;7.90;;
53421;SDS011;39319;52.944;5.928;2022-09-21T19:50:35;25.02;;;9.15;;